createdAt,value
2022-12-03T00:01:16.431Z,31.40
2022-12-03T00:03:43.648Z,31.40
2022-12-03T00:06:11.039Z,30.30
2022-12-03T00:08:38.294Z,28.70
2022-12-03T00:11:05.749Z,30.20
2022-12-03T00:13:33.002Z,31.00
2022-12-03T00:16:00.222Z,31.20
2022-12-03T00:18:27.516Z,31.10
2022-12-03T00:20:54.576Z,32.10
2022-12-03T00:23:21.917Z,31.10
2022-12-03T00:25:49.090Z,31.40
2022-12-03T00:28:16.172Z,31.40
2022-12-03T00:30:43.609Z,30.60
2022-12-03T00:33:11.023Z,32.10
2022-12-03T00:35:38.176Z,31.10
2022-12-03T00:38:05.529Z,32.00
2022-12-03T00:40:32.712Z,31.50
2022-12-03T00:42:59.770Z,32.10
2022-12-03T00:45:26.954Z,32.50
2022-12-03T00:47:54.017Z,33.30
2022-12-03T00:50:22.104Z,34.40
2022-12-03T00:52:49.833Z,32.70
2022-12-03T00:55:17.231Z,34.90
2022-12-03T00:57:44.335Z,33.60
2022-12-03T01:00:15.726Z,32.60
2022-12-03T01:02:43.074Z,32.30
2022-12-03T01:05:11.737Z,29.90
2022-12-03T01:07:38.985Z,29.30
2022-12-03T01:10:07.079Z,29.80
2022-12-03T01:12:34.281Z,30.90
2022-12-03T01:15:01.404Z,31.20
2022-12-03T01:17:28.497Z,32.20
2022-12-03T01:19:55.654Z,31.40
2022-12-03T01:22:22.988Z,31.30
2022-12-03T01:24:50.379Z,32.20
2022-12-03T01:27:18.149Z,30.80
2022-12-03T01:29:45.227Z,29.80
2022-12-03T01:32:19.789Z,28.40
2022-12-03T01:34:47.904Z,29.00
2022-12-03T01:37:15.567Z,30.90
2022-12-03T01:39:43.130Z,30.30
2022-12-03T01:42:13.909Z,31.10
2022-12-03T01:44:42.254Z,30.10
2022-12-03T01:47:14.084Z,30.30
2022-12-03T01:49:44.834Z,29.60
2022-12-03T01:52:15.162Z,28.80
2022-12-03T01:54:47.602Z,30.60
2022-12-03T01:57:23.538Z,29.20
2022-12-03T01:59:51.564Z,29.60
2022-12-03T02:02:23.932Z,26.70
2022-12-03T02:04:53.393Z,28.20
2022-12-03T02:07:24.589Z,27.40
2022-12-03T02:09:51.940Z,28.90
2022-12-03T02:12:22.675Z,27.40
2022-12-03T02:14:50.620Z,28.60
2022-12-03T02:17:19.133Z,28.70
2022-12-03T02:19:47.493Z,28.50
2022-12-03T02:22:27.964Z,27.60
2022-12-03T02:25:03.422Z,28.60
2022-12-03T02:27:31.206Z,27.20
2022-12-03T02:29:58.941Z,27.20
2022-12-03T02:32:26.116Z,25.40
2022-12-03T02:34:54.111Z,25.10
2022-12-03T02:37:24.702Z,25.80
2022-12-03T02:39:55.247Z,25.70
2022-12-03T02:42:39.410Z,24.50
2022-12-03T02:45:12.189Z,27.20
2022-12-03T02:47:45.751Z,27.30
2022-12-03T02:50:16.401Z,26.80
2022-12-03T02:52:46.003Z,26.40
2022-12-03T02:55:16.121Z,24.90
2022-12-03T02:57:45.472Z,24.20
2022-12-03T03:00:15.130Z,24.90
2022-12-03T03:02:43.578Z,23.70
2022-12-03T03:05:13.221Z,22.70
2022-12-03T03:07:41.219Z,24.40
2022-12-03T03:10:12.482Z,25.80
2022-12-03T03:12:40.574Z,24.40
2022-12-03T03:15:10.718Z,24.40
2022-12-03T03:17:39.034Z,25.40
2022-12-03T03:20:09.363Z,24.70
2022-12-03T03:22:38.522Z,23.00
2022-12-03T03:25:08.447Z,22.90
2022-12-03T03:27:36.395Z,23.00
2022-12-03T03:30:04.323Z,22.50
2022-12-03T03:32:32.383Z,22.80
2022-12-03T03:35:01.788Z,22.80
2022-12-03T03:37:30.054Z,22.70
2022-12-03T03:39:57.727Z,23.30
2022-12-03T03:42:26.018Z,23.90
2022-12-03T03:44:53.594Z,24.60
2022-12-03T03:47:23.950Z,23.60
2022-12-03T03:49:51.554Z,24.80
2022-12-03T03:52:18.929Z,24.50
2022-12-03T03:54:46.425Z,24.40
2022-12-03T03:57:13.678Z,24.90
2022-12-03T03:59:41.340Z,25.10
2022-12-03T04:02:16.462Z,23.80
2022-12-03T04:04:43.729Z,23.10
2022-12-03T04:07:10.878Z,22.80
2022-12-03T04:09:38.236Z,22.40
2022-12-03T04:12:23.310Z,23.60
2022-12-03T04:14:50.436Z,24.70
2022-12-03T04:17:17.582Z,24.60
2022-12-03T04:19:44.768Z,24.50
2022-12-03T04:22:29.727Z,25.70
2022-12-03T04:25:17.356Z,24.00
2022-12-03T04:28:04.578Z,24.60
2022-12-03T04:30:32.178Z,23.50
2022-12-03T04:33:17.002Z,24.70
2022-12-03T04:35:44.330Z,23.90
2022-12-03T04:38:11.917Z,23.90
2022-12-03T04:41:05.186Z,23.10
2022-12-03T04:43:34.651Z,22.60
2022-12-03T04:46:02.857Z,23.50
2022-12-03T04:48:30.326Z,23.90
2022-12-03T04:50:57.401Z,23.00
2022-12-03T04:53:24.717Z,25.90
2022-12-03T04:55:52.278Z,24.00
2022-12-03T04:58:19.735Z,24.30
2022-12-03T05:00:46.884Z,25.80
2022-12-03T05:03:14.343Z,24.60
2022-12-03T05:05:41.625Z,25.30
2022-12-03T05:08:10.442Z,25.80
2022-12-03T05:10:37.643Z,23.60
2022-12-03T05:13:04.786Z,24.10
2022-12-03T05:15:31.941Z,22.90
2022-12-03T05:17:59.088Z,23.50
2022-12-03T05:20:49.772Z,23.80
2022-12-03T05:23:20.852Z,24.50
2022-12-03T05:25:48.289Z,24.40
2022-12-03T05:28:16.360Z,24.70
2022-12-03T05:30:43.694Z,24.30
2022-12-03T05:33:11.006Z,25.70
2022-12-03T05:35:38.065Z,26.00
2022-12-03T05:38:05.141Z,24.90
2022-12-03T05:40:32.292Z,24.30
2022-12-03T05:43:01.701Z,25.20
2022-12-03T05:45:30.384Z,24.30
2022-12-03T05:47:58.454Z,25.60
2022-12-03T05:50:28.088Z,24.60
2022-12-03T05:52:55.851Z,24.80
2022-12-03T05:55:23.316Z,24.60
2022-12-03T05:57:50.664Z,25.00
2022-12-03T06:00:20.829Z,25.10
2022-12-03T06:02:48.315Z,23.90
2022-12-03T06:05:19.505Z,25.40
2022-12-03T06:07:46.992Z,26.00
2022-12-03T06:10:16.722Z,25.80
2022-12-03T06:12:44.371Z,26.40
2022-12-03T06:15:14.184Z,25.10
2022-12-03T06:17:41.824Z,25.70
2022-12-03T06:20:11.843Z,27.10
2022-12-03T06:22:38.954Z,26.20
2022-12-03T06:25:07.397Z,26.00
2022-12-03T06:27:35.004Z,24.40
2022-12-03T06:30:02.462Z,24.20
2022-12-03T06:32:29.940Z,24.90
2022-12-03T06:34:57.379Z,25.60
2022-12-03T06:37:24.727Z,24.40
2022-12-03T06:39:51.876Z,24.20
2022-12-03T06:42:19.027Z,24.80
2022-12-03T06:44:46.280Z,24.60
2022-12-03T06:47:13.840Z,23.40
2022-12-03T06:49:41.287Z,24.80
2022-12-03T06:52:08.497Z,23.50
2022-12-03T06:54:35.817Z,24.10
2022-12-03T06:57:03.365Z,24.00
2022-12-03T06:59:34.304Z,24.40
2022-12-03T07:02:02.079Z,24.60
2022-12-03T07:04:29.263Z,25.60
2022-12-03T07:06:56.357Z,25.20
2022-12-03T07:09:23.624Z,25.10
2022-12-03T07:11:50.719Z,26.00
2022-12-03T07:14:17.850Z,26.10
2022-12-03T07:16:44.954Z,26.50
2022-12-03T07:19:12.870Z,23.70
2022-12-03T07:21:40.006Z,24.70
2022-12-03T07:24:07.582Z,23.30
2022-12-03T07:26:35.016Z,23.50
2022-12-03T07:29:02.332Z,23.00
2022-12-03T07:31:30.240Z,25.90
2022-12-03T07:33:57.670Z,25.40
2022-12-03T07:36:24.939Z,25.00
2022-12-03T07:38:52.289Z,25.50
2022-12-03T07:41:19.652Z,25.40
2022-12-03T07:43:47.128Z,23.20
2022-12-03T07:46:15.833Z,23.50
2022-12-03T07:48:45.810Z,23.80
2022-12-03T07:51:15.372Z,23.00
2022-12-03T07:53:43.039Z,23.20
2022-12-03T07:56:11.270Z,24.40
2022-12-03T07:58:38.925Z,26.30
2022-12-03T08:01:06.280Z,25.20
2022-12-03T08:03:33.537Z,24.80
2022-12-03T08:06:00.990Z,25.80
2022-12-03T08:08:28.177Z,26.00
2022-12-03T08:10:55.300Z,24.50
2022-12-03T08:13:22.463Z,23.20
2022-12-03T08:15:49.898Z,23.00
2022-12-03T08:18:19.777Z,23.30
2022-12-03T08:20:49.041Z,23.30
2022-12-03T08:23:19.043Z,24.70
2022-12-03T08:25:48.690Z,25.10
2022-12-03T08:28:19.158Z,25.00
2022-12-03T08:30:48.752Z,25.70
2022-12-03T08:33:27.998Z,25.20
2022-12-03T08:35:56.276Z,24.10
2022-12-03T08:38:26.331Z,22.80
2022-12-03T08:40:55.842Z,22.20
2022-12-03T08:43:25.431Z,23.50
2022-12-03T08:45:54.138Z,25.20
2022-12-03T08:48:36.916Z,23.10
2022-12-03T08:51:20.019Z,25.50
2022-12-03T08:53:53.308Z,24.60
2022-12-03T08:56:26.181Z,26.00
2022-12-03T08:58:57.057Z,26.00
2022-12-03T09:01:43.090Z,26.20
2022-12-03T09:04:24.068Z,26.80
2022-12-03T09:06:52.290Z,23.70
2022-12-03T09:09:19.907Z,22.50
2022-12-03T09:11:47.612Z,23.50
2022-12-03T09:14:18.712Z,25.00
2022-12-03T09:16:46.375Z,26.10
2022-12-03T09:19:14.007Z,26.70
2022-12-03T09:21:41.753Z,29.10
2022-12-03T09:24:09.562Z,27.40
2022-12-03T09:26:36.765Z,28.80
2022-12-03T09:29:08.939Z,30.30
2022-12-03T09:31:39.009Z,24.30
2022-12-03T09:34:07.749Z,24.20
2022-12-03T09:36:34.994Z,24.40
2022-12-03T09:39:02.248Z,23.80
2022-12-03T09:41:30.206Z,24.50
2022-12-03T09:44:05.834Z,25.40
2022-12-03T09:46:34.822Z,26.10
2022-12-03T09:49:03.449Z,25.80
2022-12-03T09:51:36.016Z,25.30
2022-12-03T09:54:04.468Z,26.00
2022-12-03T09:56:31.958Z,24.80
2022-12-03T09:58:59.309Z,24.90
2022-12-03T10:01:30.383Z,25.00
2022-12-03T10:03:58.484Z,24.70
2022-12-03T10:06:26.391Z,27.20
2022-12-03T10:08:56.206Z,27.00
2022-12-03T10:11:26.251Z,25.70
2022-12-03T10:13:54.002Z,24.90
2022-12-03T10:16:22.580Z,24.40
2022-12-03T10:18:52.485Z,23.80
2022-12-03T10:21:25.268Z,24.40
2022-12-03T10:24:12.591Z,25.30
2022-12-03T10:26:41.870Z,25.40
2022-12-03T10:29:15.001Z,26.50
2022-12-03T10:31:42.172Z,27.20
2022-12-03T10:34:09.910Z,27.30
2022-12-03T10:36:37.359Z,27.00
2022-12-03T10:39:13.829Z,28.00
2022-12-03T10:41:42.280Z,26.60
2022-12-03T10:44:20.142Z,25.30
2022-12-03T10:46:58.735Z,24.20
2022-12-03T10:49:26.487Z,26.40
2022-12-03T10:51:53.638Z,26.40
2022-12-03T10:54:23.210Z,28.10
2022-12-03T10:56:52.580Z,26.90
2022-12-03T10:59:23.195Z,27.70
2022-12-03T11:01:51.135Z,27.60
2022-12-03T11:04:33.378Z,27.50
2022-12-03T11:07:02.854Z,26.80
2022-12-03T11:09:33.181Z,27.40
2022-12-03T11:12:07.349Z,27.00
2022-12-03T11:15:15.188Z,26.40
2022-12-03T11:17:50.996Z,27.20
2022-12-03T11:20:52.681Z,29.10
2022-12-03T11:23:57.243Z,28.60
2022-12-03T11:27:02.958Z,29.10
2022-12-03T11:29:51.547Z,28.10
2022-12-03T11:32:49.506Z,27.30
2022-12-03T11:35:27.525Z,28.40
2022-12-03T11:37:55.391Z,27.30
2022-12-03T11:40:37.729Z,28.70
2022-12-03T11:43:11.095Z,28.60
2022-12-03T11:45:41.113Z,28.20
2022-12-03T11:48:18.930Z,28.60
2022-12-03T11:50:51.587Z,26.70
2022-12-03T11:53:24.817Z,28.00
2022-12-03T11:56:06.530Z,27.90
2022-12-03T11:58:34.551Z,28.60
2022-12-03T12:01:05.797Z,28.90
2022-12-03T12:03:34.658Z,28.10
2022-12-03T12:06:10.726Z,27.90
2022-12-03T12:08:39.535Z,27.10
2022-12-03T12:11:17.231Z,29.80
2022-12-03T12:13:56.184Z,28.10
2022-12-03T12:16:51.458Z,28.50
2022-12-03T12:19:49.755Z,29.20
2022-12-03T12:22:32.800Z,28.90
2022-12-03T12:25:01.279Z,30.40
2022-12-03T12:27:36.044Z,29.80
2022-12-03T12:30:05.648Z,28.60
2022-12-03T12:32:40.110Z,28.00
2022-12-03T12:35:17.318Z,28.20
2022-12-03T12:37:59.766Z,27.40
2022-12-03T12:40:30.646Z,27.90
2022-12-03T12:42:59.534Z,28.10
2022-12-03T12:45:28.769Z,28.10
2022-12-03T12:48:09.297Z,28.00
2022-12-03T12:50:38.083Z,29.60
2022-12-03T12:53:13.533Z,28.50
2022-12-03T12:55:40.990Z,29.00
2022-12-03T12:58:14.958Z,30.90
2022-12-03T13:00:42.134Z,29.00
2022-12-03T13:03:11.907Z,30.10
2022-12-03T13:05:42.689Z,29.30
2022-12-03T13:08:23.842Z,29.30
2022-12-03T13:10:51.693Z,28.70
2022-12-03T13:13:23.607Z,30.30
2022-12-03T13:16:00.097Z,28.20
2022-12-03T13:18:47.110Z,30.10
2022-12-03T13:21:23.965Z,30.10
2022-12-03T13:23:52.965Z,29.60
2022-12-03T13:26:34.666Z,29.80
2022-12-03T13:29:13.368Z,29.30
2022-12-03T13:31:44.121Z,28.50
2022-12-03T13:34:18.014Z,28.80
2022-12-03T13:36:51.966Z,29.20
2022-12-03T13:39:28.533Z,27.30
2022-12-03T13:42:14.312Z,28.00
2022-12-03T13:44:46.757Z,27.60
2022-12-03T13:47:20.264Z,30.70
2022-12-03T13:49:53.499Z,29.50
2022-12-03T13:52:23.265Z,29.50
2022-12-03T13:54:52.944Z,31.60
2022-12-03T13:57:22.541Z,30.80
2022-12-03T13:59:49.830Z,32.00
2022-12-03T14:02:17.320Z,30.10
2022-12-03T14:04:44.746Z,31.80
2022-12-03T14:07:11.908Z,32.80
2022-12-03T14:09:39.042Z,31.10
2022-12-03T14:12:24.897Z,33.60
2022-12-03T14:14:52.405Z,30.00
2022-12-03T14:17:19.541Z,31.60
2022-12-03T14:19:47.050Z,30.40
2022-12-03T14:22:14.357Z,30.80
2022-12-03T14:24:44.989Z,30.80
2022-12-03T14:27:12.244Z,30.60
2022-12-03T14:29:39.707Z,31.00
2022-12-03T14:32:07.070Z,30.60
2022-12-03T14:34:34.350Z,29.70
2022-12-03T14:37:02.096Z,29.10
2022-12-03T14:39:29.629Z,31.40
2022-12-03T14:42:15.722Z,29.20
2022-12-03T14:44:44.148Z,32.10
2022-12-03T14:47:26.886Z,32.80
2022-12-03T14:49:54.713Z,31.40
2022-12-03T14:52:22.325Z,30.90
2022-12-03T14:54:49.541Z,30.40
2022-12-03T14:57:17.370Z,31.40
2022-12-03T14:59:46.004Z,30.20
2022-12-03T15:02:14.410Z,34.40
2022-12-03T15:04:42.812Z,32.80
2022-12-03T15:07:10.367Z,32.40
2022-12-03T15:09:37.871Z,32.40
2022-12-03T15:12:05.483Z,31.00
2022-12-03T15:14:32.886Z,31.30
2022-12-03T15:17:00.992Z,31.20
2022-12-03T15:19:28.679Z,32.00
2022-12-03T15:21:55.768Z,30.90
2022-12-03T15:24:23.092Z,32.70
2022-12-03T15:26:52.393Z,33.10
2022-12-03T15:29:19.570Z,33.30
2022-12-03T15:31:47.259Z,32.00
2022-12-03T15:34:18.864Z,33.10
2022-12-03T15:36:49.419Z,32.30
2022-12-03T15:39:16.670Z,34.10
2022-12-03T15:41:44.401Z,32.70
2022-12-03T15:44:11.782Z,33.60
2022-12-03T15:46:38.994Z,31.80
2022-12-03T15:49:06.565Z,34.50
2022-12-03T15:51:33.724Z,34.10
2022-12-03T15:54:01.079Z,33.90
2022-12-03T15:56:28.434Z,33.10
2022-12-03T15:58:55.791Z,34.90
2022-12-03T16:01:23.080Z,34.20
2022-12-03T16:03:50.429Z,34.60
2022-12-03T16:06:18.284Z,34.60
2022-12-03T16:08:46.167Z,34.20
2022-12-03T16:11:13.381Z,34.30
2022-12-03T16:13:40.535Z,33.80
2022-12-03T16:16:08.408Z,34.50
2022-12-03T16:18:35.631Z,36.00
2022-12-03T16:21:02.905Z,34.30
2022-12-03T16:23:30.261Z,34.10
2022-12-03T16:25:57.339Z,35.00
2022-12-03T16:28:24.974Z,36.30
2022-12-03T16:30:52.291Z,35.70
2022-12-03T16:33:25.679Z,35.50
2022-12-03T16:35:55.758Z,38.40
2022-12-03T16:38:23.217Z,37.70
2022-12-03T16:40:50.553Z,38.40
2022-12-03T16:43:18.012Z,40.30
2022-12-03T16:46:20.734Z,38.80
2022-12-03T16:48:48.750Z,39.30
2022-12-03T16:51:16.125Z,39.30
2022-12-03T16:53:43.329Z,38.80
2022-12-03T16:56:11.503Z,39.50
2022-12-03T16:58:38.669Z,39.10
2022-12-03T17:01:06.187Z,37.60
2022-12-03T17:03:34.247Z,37.60
2022-12-03T17:06:01.510Z,38.10
2022-12-03T17:08:29.047Z,38.20
2022-12-03T17:10:56.493Z,35.40
2022-12-03T17:13:24.155Z,36.40
2022-12-03T17:15:51.423Z,37.60
2022-12-03T17:18:18.931Z,37.30
2022-12-03T17:20:46.236Z,38.20
2022-12-03T17:23:13.359Z,38.50
2022-12-03T17:25:40.647Z,41.30
2022-12-03T17:28:08.193Z,41.90
2022-12-03T17:30:37.599Z,40.10
2022-12-03T17:33:05.353Z,41.40
2022-12-03T17:35:32.617Z,42.70
2022-12-03T17:37:59.712Z,40.20
2022-12-03T17:40:27.624Z,41.30
2022-12-03T17:42:54.874Z,41.30
2022-12-03T17:45:22.232Z,40.50
2022-12-03T17:47:49.487Z,40.40
2022-12-03T17:50:16.865Z,44.00
2022-12-03T17:52:44.109Z,43.10
2022-12-03T17:55:16.367Z,41.90
2022-12-03T17:57:50.997Z,41.60
2022-12-03T18:00:18.996Z,43.50
2022-12-03T18:02:46.481Z,43.10
2022-12-03T18:05:14.250Z,42.20
2022-12-03T18:07:41.785Z,40.60
2022-12-03T18:10:11.155Z,41.10
2022-12-03T18:12:38.501Z,41.90
2022-12-03T18:15:06.709Z,43.60
2022-12-03T18:17:33.930Z,40.20
2022-12-03T18:20:01.796Z,41.90
2022-12-03T18:22:29.146Z,44.80
2022-12-03T18:24:57.218Z,44.90
2022-12-03T18:27:24.801Z,44.80
2022-12-03T18:29:52.292Z,46.00
2022-12-03T18:32:28.972Z,44.20
2022-12-03T18:34:57.707Z,44.40
2022-12-03T18:37:27.121Z,45.70
2022-12-03T18:39:57.897Z,44.90
2022-12-03T18:42:25.906Z,45.50
2022-12-03T18:44:54.807Z,46.70
2022-12-03T18:47:24.118Z,43.90
2022-12-03T18:49:52.654Z,44.00
2022-12-03T18:52:21.781Z,44.90
2022-12-03T18:54:49.543Z,46.90
2022-12-03T18:57:18.329Z,48.50
2022-12-03T18:59:45.688Z,47.80
2022-12-03T19:05:10.868Z,48.40
2022-12-03T19:07:38.270Z,49.70
2022-12-03T19:10:06.627Z,49.20
2022-12-03T19:12:34.306Z,48.10
2022-12-03T19:15:01.662Z,49.40
2022-12-03T19:17:28.892Z,48.00
2022-12-03T19:19:56.526Z,46.80
2022-12-03T19:22:24.953Z,48.30
2022-12-03T19:24:52.111Z,48.00
2022-12-03T19:27:19.692Z,47.90
2022-12-03T19:29:51.050Z,49.50
2022-12-03T19:32:18.265Z,46.80
2022-12-03T19:34:45.530Z,48.40
2022-12-03T19:37:12.774Z,48.30
2022-12-03T19:39:40.092Z,44.40
2022-12-03T19:42:07.494Z,46.00
2022-12-03T19:44:34.835Z,45.10
2022-12-03T19:47:02.356Z,45.60
2022-12-03T19:49:29.527Z,47.00
2022-12-03T19:51:58.207Z,44.20
2022-12-03T19:54:25.588Z,45.70
2022-12-03T19:56:52.792Z,44.20
2022-12-03T19:59:19.964Z,45.10
2022-12-03T20:01:47.232Z,43.90
2022-12-03T20:04:15.220Z,44.90
2022-12-03T20:06:43.001Z,45.20
2022-12-03T20:09:12.523Z,44.30
2022-12-03T20:11:41.289Z,43.20
2022-12-03T20:14:12.354Z,41.60
2022-12-03T20:16:42.213Z,42.70
2022-12-03T20:19:15.420Z,41.90
2022-12-03T20:21:43.289Z,44.40
2022-12-03T20:24:13.925Z,42.50
2022-12-03T20:26:41.729Z,41.30
2022-12-03T20:29:09.038Z,42.40
2022-12-03T20:31:36.346Z,42.10
2022-12-03T20:34:04.993Z,41.40
2022-12-03T20:36:33.568Z,43.10
2022-12-03T20:39:03.401Z,41.50
2022-12-03T20:41:31.674Z,40.60
2022-12-03T20:43:58.693Z,41.60
2022-12-03T20:46:27.467Z,42.30
2022-12-03T20:48:55.255Z,42.30
2022-12-03T20:51:26.635Z,43.60
2022-12-03T20:53:55.597Z,38.80
2022-12-03T20:56:25.061Z,41.30
2022-12-03T20:58:53.394Z,39.70
2022-12-03T21:01:22.635Z,40.00
2022-12-03T21:03:51.109Z,40.50
2022-12-03T21:06:19.740Z,38.20
2022-12-03T21:08:48.085Z,40.20
2022-12-03T21:11:17.370Z,38.60
2022-12-03T21:13:44.895Z,42.30
2022-12-03T21:16:14.588Z,40.80
2022-12-03T21:18:41.945Z,42.90
2022-12-03T21:21:11.470Z,43.10
2022-12-03T21:23:38.982Z,42.20
2022-12-03T21:26:08.246Z,45.90
2022-12-03T21:28:35.764Z,43.80
2022-12-03T21:31:08.508Z,43.80
2022-12-03T21:33:37.037Z,44.30
2022-12-03T21:36:05.515Z,43.90
2022-12-03T21:38:33.352Z,42.60
2022-12-03T21:41:02.167Z,45.40
2022-12-03T21:43:30.653Z,43.60
2022-12-03T21:45:57.973Z,44.10
2022-12-03T21:48:25.669Z,43.90
2022-12-03T21:51:03.774Z,44.60
2022-12-03T21:53:32.243Z,44.00
2022-12-03T21:56:00.257Z,42.40
2022-12-03T21:58:27.381Z,43.50
2022-12-03T22:00:54.949Z,44.60
2022-12-03T22:03:22.911Z,43.20
2022-12-03T22:05:50.263Z,42.10
2022-12-03T22:08:18.228Z,42.40
2022-12-03T22:10:45.921Z,41.20
2022-12-03T22:13:13.223Z,42.60
2022-12-03T22:15:42.302Z,40.80
2022-12-03T22:18:09.592Z,40.90
2022-12-03T22:20:36.742Z,41.00
2022-12-03T22:23:04.072Z,42.60
2022-12-03T22:25:31.863Z,40.40
2022-12-03T22:27:59.014Z,40.20
2022-12-03T22:30:26.476Z,39.90
2022-12-03T22:32:53.621Z,39.60
2022-12-03T22:35:20.796Z,41.10
2022-12-03T22:37:48.228Z,38.90
2022-12-03T22:40:16.612Z,37.70
2022-12-03T22:42:49.341Z,38.10
2022-12-03T22:45:18.383Z,39.50
2022-12-03T22:47:45.534Z,38.10
2022-12-03T22:50:13.444Z,35.70
2022-12-03T22:52:40.667Z,35.50
2022-12-03T22:55:10.645Z,36.60
2022-12-03T22:57:37.767Z,37.20
2022-12-03T23:00:08.901Z,36.10
2022-12-03T23:02:36.277Z,34.60
2022-12-03T23:05:04.112Z,34.70
2022-12-03T23:07:31.388Z,33.80
2022-12-03T23:09:58.744Z,34.20
2022-12-03T23:12:25.867Z,33.00
2022-12-03T23:14:55.903Z,33.20
2022-12-03T23:17:23.281Z,34.60
2022-12-03T23:19:50.671Z,35.60
2022-12-03T23:22:18.029Z,34.40
2022-12-03T23:24:45.096Z,35.00
2022-12-03T23:27:12.207Z,34.90
2022-12-03T23:29:39.566Z,35.20
2022-12-03T23:32:06.850Z,35.20
2022-12-03T23:34:33.721Z,35.50
2022-12-03T23:37:01.039Z,34.20
2022-12-03T23:39:28.182Z,33.80
2022-12-03T23:41:55.535Z,33.80
2022-12-03T23:44:22.795Z,35.00
2022-12-03T23:46:50.040Z,34.70
2022-12-03T23:49:17.350Z,34.50
2022-12-03T23:51:44.449Z,35.30
2022-12-03T23:54:12.433Z,34.70
2022-12-03T23:56:39.570Z,37.80
2022-12-03T23:59:06.962Z,33.00
